Time;durP1;ratioP1;P1;durP2;ratioP2;P2;SDS_P1;SDS_P2;PMS_P1;PMS_P2;Temp;Humidity;BMP_temperature;BMP_pressure;BME280_temperature;BME280_humidity;BME280_pressure;Samples;Min_cycle;Max_cycle;Signal;HPM_P1;HPM_P2
2022/10/25 00:00:28;;;;;;;5.75;1.33;;;;;;;12.70;92.34;101064.81;5073923;28;20020;-77
2022/10/25 00:02:54;;;;;;;6.80;1.20;;;;;;;12.69;91.94;101069.22;5069454;28;20024;-77
2022/10/25 00:05:19;;;;;;;4.60;0.90;;;;;;;12.69;91.77;101073.56;5073884;28;20025;-77
2022/10/25 00:07:44;;;;;;;6.68;1.20;;;;;;;12.69;91.71;101078.78;5070414;28;20040;-77
2022/10/25 00:10:10;;;;;;;5.03;1.10;;;;;;;12.70;91.50;101070.91;5074194;28;20123;-77
2022/10/25 00:12:43;;;;;;;6.05;1.10;;;;;;;12.71;91.79;101063.94;5071603;28;20035;-77
2022/10/25 00:15:11;;;;;;;5.20;1.17;;;;;;;12.73;91.92;101075.19;5074044;28;20029;-77
2022/10/25 00:17:36;;;;;;;5.00;1.25;;;;;;;12.74;91.82;101076.88;5074142;28;20036;-77
2022/10/25 00:20:01;;;;;;;5.35;1.23;;;;;;;12.75;91.64;101068.16;5073260;28;20085;-77
2022/10/25 00:22:30;;;;;;;7.28;1.20;;;;;;;12.75;91.62;101074.22;5073108;28;20031;-78
2022/10/25 00:24:55;;;;;;;5.07;1.50;;;;;;;12.75;91.44;101081.22;5071347;28;20028;-78
2022/10/25 00:27:20;;;;;;;5.93;1.30;;;;;;;12.73;91.55;101076.00;5074452;28;20043;-77
2022/10/25 00:29:45;;;;;;;3.50;1.05;;;;;;;12.73;91.34;101090.84;5072238;28;20054;-77
2022/10/25 00:32:11;;;;;;;2.72;0.93;;;;;;;12.73;91.31;101091.69;5069910;28;20028;-77
2022/10/25 00:34:39;;;;;;;6.25;1.20;;;;;;;12.72;91.51;101086.53;5072174;28;20036;-77
2022/10/25 00:37:04;;;;;;;5.53;1.20;;;;;;;12.71;91.60;101097.88;5073033;28;20032;-77
2022/10/25 00:39:29;;;;;;;3.28;1.17;;;;;;;12.70;91.56;101088.31;5073523;28;20381;-77
2022/10/25 00:41:56;;;;;;;6.13;1.65;;;;;;;12.67;91.82;101088.41;5069632;28;20039;-78
2022/10/25 00:44:46;;;;;;;6.38;1.45;;;;;;;12.68;91.13;101097.94;5074235;28;20515;-77
2022/10/25 00:47:18;;;;;;;5.22;1.33;;;;;;;12.69;91.77;101094.44;5074385;28;20024;-77
2022/10/25 00:49:45;;;;;;;2.95;1.15;;;;;;;12.73;91.42;101106.50;5073629;28;20028;-77
2022/10/25 00:52:11;;;;;;;4.47;1.30;;;;;;;12.74;91.82;101100.38;5074046;28;20040;-77
2022/10/25 00:54:43;;;;;;;5.07;1.40;;;;;;;12.78;91.70;101107.22;5072595;28;20383;-77
2022/10/25 00:57:18;;;;;;;4.43;1.17;;;;;;;12.78;91.87;101107.22;5073418;28;20446;-77
2022/10/25 00:59:45;;;;;;;7.22;1.42;;;;;;;12.79;91.84;101108.06;5073631;28;20054;-77
2022/10/25 01:02:11;;;;;;;5.35;1.30;;;;;;;12.81;91.46;101109.72;5072542;28;20025;-78
2022/10/25 01:04:37;;;;;;;6.28;1.23;;;;;;;12.83;91.71;101107.91;5068206;28;20031;-77
2022/10/25 01:07:02;;;;;;;7.68;1.30;;;;;;;12.85;91.33;101111.34;5067769;28;20024;-77
2022/10/25 01:09:31;;;;;;;6.68;1.25;;;;;;;12.86;91.64;101102.59;5073908;28;20095;-77
2022/10/25 01:11:56;;;;;;;4.53;1.50;;;;;;;12.87;91.69;101109.53;5072930;28;20040;-77
2022/10/25 01:14:22;;;;;;;4.13;1.10;;;;;;;12.89;91.27;101107.75;5073215;28;20059;-77
2022/10/25 01:17:06;;;;;;;8.35;1.40;;;;;;;12.91;91.45;101099.84;5072849;28;20040;-77
2022/10/25 01:19:58;;;;;;;6.80;1.42;;;;;;;12.93;91.33;101110.25;5073559;28;20035;-77
2022/10/25 01:22:55;;;;;;;6.53;1.30;;;;;;;12.96;91.23;101110.16;5073172;28;20115;-77
2022/10/25 01:25:32;;;;;;;7.45;1.38;;;;;;;12.97;90.83;101110.09;5061510;28;20098;-78
2022/10/25 01:28:16;;;;;;;6.57;1.10;;;;;;;13.00;90.80;101114.38;5073146;28;20024;-77
2022/10/25 01:30:53;;;;;;;5.80;1.25;;;;;;;13.01;90.72;101116.09;5057251;28;20031;-77
2022/10/25 01:33:31;;;;;;;5.53;1.27;;;;;;;13.01;90.63;101116.94;5065225;28;20054;-77
2022/10/25 01:36:05;;;;;;;5.65;1.40;;;;;;;13.03;90.48;101109.94;5072941;28;20044;-77
2022/10/25 01:38:36;;;;;;;5.22;1.20;;;;;;;13.03;90.56;101124.72;5073558;28;20035;-78
2022/10/25 01:41:01;;;;;;;4.93;1.13;;;;;;;13.04;90.56;101119.47;5072852;28;20391;-77
2022/10/25 01:44:03;;;;;;;4.90;1.05;;;;;;;13.04;90.57;101121.22;5072481;28;20028;-77
2022/10/25 01:46:43;;;;;;;6.38;1.40;;;;;;;13.05;90.36;101120.31;5067863;28;20044;-77
2022/10/25 01:49:13;;;;;;;5.57;1.20;;;;;;;13.05;90.27;101120.31;5072118;28;20028;-77
2022/10/25 01:51:38;;;;;;;4.97;1.25;;;;;;;13.06;90.34;101114.19;5072081;28;20028;-77
2022/10/25 01:54:18;;;;;;;5.70;1.52;;;;;;;13.08;90.44;101127.19;5078981;28;20023;-77
2022/10/25 01:57:07;;;;;;;4.72;1.00;;;;;;;13.08;90.10;101125.44;5082897;28;20035;-77
2022/10/25 01:59:45;;;;;;;5.90;1.30;;;;;;;13.08;90.23;101128.06;5069034;28;20024;-77
2022/10/25 02:02:48;;;;;;;5.45;1.30;;;;;;;13.09;90.20;101124.53;5069683;28;20563;-77
2022/10/25 02:05:25;;;;;;;3.88;0.98;;;;;;;13.09;89.98;101119.31;5064262;28;20474;-77
2022/10/25 02:08:03;;;;;;;5.50;0.95;;;;;;;13.08;90.20;101120.22;5070851;28;20059;-77
2022/10/25 02:10:37;;;;;;;5.63;1.00;;;;;;;13.08;90.21;101127.19;5071031;28;20052;-77
2022/10/25 02:13:34;;;;;;;7.10;1.27;;;;;;;13.08;90.06;101130.66;5077327;28;20173;-77
2022/10/25 02:16:09;;;;;;;4.70;1.10;;;;;;;13.08;90.00;101137.63;5069792;28;20039;-77
2022/10/25 02:18:37;;;;;;;6.10;1.02;;;;;;;13.07;90.20;101131.56;5069596;28;20078;-77
2022/10/25 02:21:05;;;;;;;3.20;0.90;;;;;;;13.06;89.93;101140.31;5071332;28;20024;-77
2022/10/25 02:23:34;;;;;;;6.82;1.60;;;;;;;13.06;89.94;101141.16;5072170;28;20110;-77
2022/10/25 02:26:02;;;;;;;6.63;1.05;;;;;;;13.06;89.94;101148.16;5071181;28;20073;-77
2022/10/25 02:28:29;;;;;;;6.03;1.20;;;;;;;13.05;90.22;101144.69;5070909;28;20035;-77
2022/10/25 02:30:57;;;;;;;6.57;1.20;;;;;;;13.05;89.96;101149.91;5070588;28;20466;-77
2022/10/25 02:33:22;;;;;;;7.32;1.33;;;;;;;13.05;90.04;101149.91;5071885;28;20020;-77
2022/10/25 02:36:05;;;;;;;5.47;1.10;;;;;;;13.03;90.19;101150.84;5071780;28;20051;-77
2022/10/25 02:38:30;;;;;;;5.65;1.20;;;;;;;12.96;90.48;101147.56;5071942;28;20016;-77
2022/10/25 02:40:57;;;;;;;7.95;1.20;;;;;;;12.95;90.26;101152.84;5071965;28;20031;-77
2022/10/25 02:43:22;;;;;;;5.38;1.20;;;;;;;12.92;90.33;101145.09;5072201;28;20028;-77
2022/10/25 02:45:47;;;;;;;5.63;1.00;;;;;;;12.90;89.77;101156.44;5081361;28;20032;-77
2022/10/25 02:48:12;;;;;;;7.63;1.35;;;;;;;12.89;90.16;101151.28;5074558;28;20111;-77
2022/10/25 02:50:38;;;;;;;7.15;1.40;;;;;;;12.89;90.34;101164.34;5072156;28;20105;-77
2022/10/25 02:53:03;;;;;;;7.60;1.33;;;;;;;12.89;89.95;101159.97;5071797;28;20036;-77
2022/10/25 02:55:28;;;;;;;6.47;1.20;;;;;;;12.87;90.09;101150.47;5072057;28;20029;-77
2022/10/25 02:57:53;;;;;;;9.73;1.30;;;;;;;12.84;90.53;101156.63;5072289;28;20032;-77
2022/10/25 03:00:19;;;;;;;4.93;1.27;;;;;;;12.81;90.09;101151.50;5071672;28;20033;-77
2022/10/25 03:02:44;;;;;;;4.65;1.35;;;;;;;12.75;90.12;101157.75;5076158;28;20483;-77
2022/10/25 03:05:09;;;;;;;4.97;1.13;;;;;;;12.71;90.33;101161.38;5074807;28;20040;-77
2022/10/25 03:07:34;;;;;;;5.32;1.15;;;;;;;12.68;90.54;101160.59;5075939;28;20029;-77
2022/10/25 03:10:00;;;;;;;3.97;1.13;;;;;;;12.65;90.58;101158.06;5075964;28;20042;-77
2022/10/25 03:12:25;;;;;;;4.78;1.25;;;;;;;12.62;90.70;101171.25;5075245;28;20116;-77
2022/10/25 03:14:50;;;;;;;7.18;1.20;;;;;;;12.59;90.71;101162.59;5073730;28;20021;-77
2022/10/25 03:17:15;;;;;;;6.10;1.10;;;;;;;12.57;90.79;101172.22;5075748;28;20376;-77
2022/10/25 03:19:41;;;;;;;4.40;1.20;;;;;;;12.56;91.17;101173.13;5078773;28;20017;-77
2022/10/25 03:22:06;;;;;;;4.97;1.10;;;;;;;12.53;90.99;101172.34;5075265;28;20417;-77
2022/10/25 03:24:31;;;;;;;4.90;1.60;;;;;;;12.51;90.85;101172.38;5075537;28;20028;-77
2022/10/25 03:26:56;;;;;;;6.03;1.45;;;;;;;12.49;91.16;101184.63;5075724;28;20035;-77
2022/10/25 03:29:22;;;;;;;5.18;1.33;;;;;;;12.45;91.16;101180.41;5075200;28;20059;-77
2022/10/25 03:31:47;;;;;;;4.95;1.00;;;;;;;12.43;91.34;101187.41;5075413;28;20039;-77
2022/10/25 03:34:12;;;;;;;5.68;1.10;;;;;;;12.40;91.52;101188.34;5074762;28;20039;-77
2022/10/25 03:36:37;;;;;;;2.60;0.90;;;;;;;12.40;91.79;101197.94;5075227;28;20109;-77
2022/10/25 03:39:03;;;;;;;3.25;1.05;;;;;;;12.39;91.51;101191.00;5076965;28;20043;-77
2022/10/25 03:41:28;;;;;;;4.35;1.20;;;;;;;12.37;91.22;101201.50;5075134;28;20112;-77
2022/10/25 03:43:53;;;;;;;3.80;1.20;;;;;;;12.36;91.16;101211.97;5073983;28;20107;-77
2022/10/25 03:46:18;;;;;;;4.55;1.27;;;;;;;12.35;91.14;101210.25;5073036;28;20063;-77
2022/10/25 03:48:44;;;;;;;2.70;1.10;;;;;;;12.32;91.33;101211.19;5074046;28;20028;-77
2022/10/25 03:51:09;;;;;;;4.30;0.90;;;;;;;12.30;91.23;101211.22;5073969;28;20032;-76
2022/10/25 03:53:34;;;;;;;7.28;1.20;;;;;;;12.30;91.29;101216.44;5073455;28;20471;-77
2022/10/25 03:55:59;;;;;;;4.82;1.20;;;;;;;12.29;91.54;101211.28;5073104;28;20028;-77
2022/10/25 03:58:25;;;;;;;5.22;1.00;;;;;;;12.28;91.20;101218.25;5074222;28;20062;-77
2022/10/25 04:00:50;;;;;;;4.57;1.08;;;;;;;12.26;91.15;101217.44;5074540;28;20036;-77
2022/10/25 04:03:15;;;;;;;5.53;1.20;;;;;;;12.24;91.38;101224.44;5073456;28;20089;-77
2022/10/25 04:05:41;;;;;;;6.30;1.30;;;;;;;12.22;91.47;101217.53;5073053;28;20435;-77
2022/10/25 04:08:06;;;;;;;4.75;1.30;;;;;;;12.20;91.69;101230.63;5074034;28;21885;-78
2022/10/25 04:10:31;;;;;;;2.65;1.30;;;;;;;12.16;91.57;101225.53;5072874;28;20053;-77
2022/10/25 04:12:57;;;;;;;3.10;1.20;;;;;;;12.16;91.79;101222.94;5073064;28;20123;-77
2022/10/25 04:15:23;;;;;;;5.50;1.20;;;;;;;12.14;91.68;101233.38;5074105;28;20056;-77
2022/10/25 04:17:49;;;;;;;5.97;1.40;;;;;;;12.15;91.79;101229.88;5064315;28;20028;-77
2022/10/25 04:20:15;;;;;;;5.90;1.70;;;;;;;12.16;91.83;101226.38;5073133;28;20099;-78
2022/10/25 04:22:40;;;;;;;6.95;1.30;;;;;;;12.13;91.99;101223.84;5073209;28;20527;-77
2022/10/25 04:25:06;;;;;;;6.20;1.63;;;;;;;12.13;92.08;101221.25;5073129;28;20039;-77
2022/10/25 04:27:31;;;;;;;5.00;1.42;;;;;;;12.12;91.85;101230.00;5073937;28;20566;-77
2022/10/25 04:29:56;;;;;;;5.20;1.50;;;;;;;12.11;91.74;101229.13;5072737;28;20032;-77
2022/10/25 04:32:22;;;;;;;4.57;1.30;;;;;;;12.10;91.91;101239.59;5072430;28;20387;-77
2022/10/25 04:34:47;;;;;;;3.53;1.20;;;;;;;12.07;92.10;101232.69;5073419;28;20110;-77
2022/10/25 04:37:12;;;;;;;5.05;1.40;;;;;;;12.06;91.89;101235.34;5073282;28;20032;-77
2022/10/25 04:39:38;;;;;;;4.72;1.27;;;;;;;12.05;92.36;101238.84;5072429;28;20036;-77
2022/10/25 04:42:03;;;;;;;9.98;1.60;;;;;;;12.04;92.21;101231.91;5074261;28;20036;-77
2022/10/25 04:44:28;;;;;;;3.97;1.30;;;;;;;12.04;92.17;101234.53;5072405;28;20380;-77
2022/10/25 04:46:53;;;;;;;5.00;1.92;;;;;;;12.04;92.06;101242.34;5073383;28;20072;-77
2022/10/25 04:49:19;;;;;;;4.22;1.48;;;;;;;12.05;92.15;101238.84;5071195;28;20025;-77
2022/10/25 04:51:44;;;;;;;6.35;1.27;;;;;;;12.04;92.22;101242.34;5073063;28;20390;-77
2022/10/25 04:54:12;;;;;;;5.90;1.50;;;;;;;12.03;92.55;101245.84;5069249;28;20037;-77
2022/10/25 04:56:38;;;;;;;5.05;1.48;;;;;;;12.01;92.58;101247.63;5070432;28;20055;-77
2022/10/25 04:59:03;;;;;;;4.93;1.67;;;;;;;11.99;92.70;101245.09;5071784;28;20115;-77
2022/10/25 05:01:29;;;;;;;4.65;1.48;;;;;;;11.96;92.91;101251.19;5071735;28;20028;-77
2022/10/25 05:03:54;;;;;;;6.70;1.70;;;;;;;11.96;92.77;101251.19;5072098;28;20016;-77
2022/10/25 05:06:22;;;;;;;6.60;1.60;;;;;;;11.94;92.83;101247.78;5071722;28;20112;-77
2022/10/25 05:08:49;;;;;;;5.90;1.60;;;;;;;11.94;92.64;101247.78;5072560;28;20123;-77
2022/10/25 05:11:17;;;;;;;5.40;1.70;;;;;;;11.93;92.59;101240.84;5071607;28;20049;-77
2022/10/25 05:13:43;;;;;;;6.60;1.65;;;;;;;11.94;92.66;101252.13;5071849;28;20468;-77
2022/10/25 05:16:13;;;;;;;4.25;1.60;;;;;;;11.89;92.78;101244.44;5071736;28;20058;-77
2022/10/25 05:18:39;;;;;;;6.07;1.73;;;;;;;11.88;92.59;101254.88;5070988;28;20036;-77
2022/10/25 05:21:05;;;;;;;7.13;1.75;;;;;;;11.86;93.20;101257.53;5070421;28;20039;-77
2022/10/25 05:23:32;;;;;;;5.85;1.60;;;;;;;11.88;92.77;101267.91;5074050;28;20372;-77
2022/10/25 05:26:06;;;;;;;5.03;1.80;;;;;;;11.84;93.03;101272.34;5068824;28;20035;-77
2022/10/25 05:28:33;;;;;;;4.28;1.60;;;;;;;11.83;93.14;101273.25;5072513;28;20028;-77
2022/10/25 05:31:05;;;;;;;5.05;1.77;;;;;;;11.82;93.35;101271.53;5071913;28;20031;-77
2022/10/25 05:33:31;;;;;;;4.55;1.55;;;;;;;11.80;93.09;101270.69;5072430;28;20064;-77
2022/10/25 05:35:59;;;;;;;4.43;1.50;;;;;;;11.79;93.26;101272.47;5073368;28;20032;-77
2022/10/25 05:38:24;;;;;;;3.30;1.60;;;;;;;11.78;93.15;101280.34;5071739;28;20430;-77
2022/10/25 05:40:57;;;;;;;5.30;1.50;;;;;;;11.78;93.16;101288.16;5073049;28;20115;-77
2022/10/25 05:43:22;;;;;;;6.28;1.50;;;;;;;11.76;93.18;101282.97;5073388;28;20032;-77
2022/10/25 05:45:49;;;;;;;5.25;1.40;;;;;;;11.76;93.13;101287.34;5070927;28;20541;-77
2022/10/25 05:48:14;;;;;;;5.13;1.50;;;;;;;11.74;93.20;101289.13;5072955;28;20089;-77
2022/10/25 05:50:39;;;;;;;5.78;1.58;;;;;;;11.73;93.39;101287.41;5072452;28;20025;-77
2022/10/25 05:53:05;;;;;;;5.78;1.50;;;;;;;11.73;93.21;101297.81;5073646;28;20024;-77
2022/10/25 05:55:32;;;;;;;3.58;1.08;;;;;;;11.72;93.06;101298.72;5072088;28;20395;-77
2022/10/25 05:57:58;;;;;;;4.65;1.45;;;;;;;11.71;93.32;101302.22;5072447;28;20176;-77
2022/10/25 06:00:23;;;;;;;4.97;1.50;;;;;;;11.66;93.49;101300.56;5071662;28;20408;-77
2022/10/25 06:02:48;;;;;;;3.97;1.25;;;;;;;11.67;93.47;101307.50;5072302;28;20103;-77
2022/10/25 06:05:14;;;;;;;4.07;1.40;;;;;;;11.67;93.38;101307.50;5062771;28;20029;-77
2022/10/25 06:07:39;;;;;;;4.80;2.00;;;;;;;11.68;93.38;101303.16;5063734;28;20138;-77
2022/10/25 06:10:04;;;;;;;5.93;1.60;;;;;;;11.66;93.46;101316.19;5071083;28;20537;-77
2022/10/25 06:12:30;;;;;;;5.32;1.45;;;;;;;11.65;93.76;101317.09;5070340;28;20032;-77
2022/10/25 06:14:55;;;;;;;4.88;1.27;;;;;;;11.67;93.48;101322.28;5070325;28;21718;-77
2022/10/25 06:17:20;;;;;;;5.32;1.63;;;;;;;11.69;93.79;101321.34;5068755;28;20029;-77
2022/10/25 06:19:45;;;;;;;6.43;1.67;;;;;;;11.72;93.48;101325.63;5062502;28;20032;-77
2022/10/25 06:22:11;;;;;;;6.50;1.60;;;;;;;11.74;93.55;101329.06;5069655;28;20037;-77
2022/10/25 06:24:36;;;;;;;5.28;1.58;;;;;;;11.73;93.65;101329.09;5071213;28;20478;-77
2022/10/25 06:27:01;;;;;;;5.05;1.70;;;;;;;11.75;93.42;101330.78;5070138;28;20111;-77
2022/10/25 06:29:27;;;;;;;5.00;1.50;;;;;;;11.76;93.43;101342.06;5067366;28;20494;-77
2022/10/25 06:31:52;;;;;;;3.88;1.67;;;;;;;11.76;93.49;101347.28;5070902;28;20114;-77
2022/10/25 06:34:17;;;;;;;7.28;1.80;;;;;;;11.76;93.25;101336.84;5068324;28;20037;-77
2022/10/25 06:36:42;;;;;;;5.30;2.03;;;;;;;11.75;93.37;101346.41;5068632;28;20028;-77
2022/10/25 06:39:08;;;;;;;6.30;2.33;;;;;;;11.76;93.11;101357.72;5070720;28;20028;-76
2022/10/25 06:41:35;;;;;;;5.70;1.98;;;;;;;11.74;93.42;101354.28;5070981;28;20472;-77
2022/10/25 06:44:00;;;;;;;4.32;2.10;;;;;;;11.73;93.18;101358.63;5064014;28;20035;-77
2022/10/25 06:46:32;;;;;;;7.13;2.13;;;;;;;11.73;93.27;101357.78;5068004;28;20024;-77
2022/10/25 06:48:58;;;;;;;11.52;3.03;;;;;;;11.71;93.20;101360.41;5071226;28;20390;-77
2022/10/25 06:51:25;;;;;;;4.95;2.60;;;;;;;11.71;93.39;101364.75;5069878;28;20095;-77
2022/10/25 06:54:00;;;;;;;6.80;2.80;;;;;;;11.73;93.33;101369.03;5070545;28;20104;-77
2022/10/25 06:56:27;;;;;;;6.78;2.78;;;;;;;11.75;93.30;101372.47;5068671;28;20036;-77
2022/10/25 06:58:53;;;;;;;7.18;2.50;;;;;;;11.75;93.27;101372.47;5071367;28;20215;-77
2022/10/25 07:01:20;;;;;;;5.25;2.95;;;;;;;11.78;93.28;101376.78;5070225;28;20110;-77
2022/10/25 07:03:46;;;;;;;6.72;2.90;;;;;;;11.79;93.19;101374.13;5070474;28;20024;-77
2022/10/25 07:06:14;;;;;;;5.95;2.70;;;;;;;11.82;93.47;101386.22;5068976;28;20067;-77
2022/10/25 07:08:42;;;;;;;10.18;3.03;;;;;;;11.83;93.36;101374.91;5070870;28;20395;-77
2022/10/25 07:11:12;;;;;;;8.75;3.40;;;;;;;11.84;93.10;101382.72;5071238;28;20105;-77
2022/10/25 07:13:37;;;;;;;8.05;2.90;;;;;;;11.86;93.20;101380.06;5069720;28;20025;-77
2022/10/25 07:16:04;;;;;;;7.57;2.97;;;;;;;11.88;93.19;101387.84;5071694;28;20028;-77
2022/10/25 07:18:31;;;;;;;5.57;3.00;;;;;;;11.89;93.14;101390.44;5070539;28;20024;-77
2022/10/25 07:21:07;;;;;;;9.55;3.25;;;;;;;11.93;93.10;101397.31;5070703;28;20131;-77
2022/10/25 07:23:33;;;;;;;9.70;3.70;;;;;;;11.97;93.17;101398.06;5070870;28;20047;-77
2022/10/25 07:25:58;;;;;;;7.57;3.60;;;;;;;12.01;93.21;101398.88;5069440;28;20033;-77
2022/10/25 07:28:24;;;;;;;6.13;3.20;;;;;;;12.04;93.34;101404.03;5070366;28;20035;-77
2022/10/25 07:30:50;;;;;;;9.13;3.40;;;;;;;12.07;93.17;101414.41;5070654;28;20181;-77
2022/10/25 07:33:17;;;;;;;8.02;3.63;;;;;;;12.10;92.85;101414.34;5068862;28;20035;-77
2022/10/25 07:35:49;;;;;;;9.07;3.85;;;;;;;12.15;93.01;101420.28;5071462;28;20029;-77
2022/10/25 07:38:15;;;;;;;7.95;3.70;;;;;;;12.19;92.62;101416.72;5071214;28;20044;-77
2022/10/25 07:40:41;;;;;;;9.00;3.92;;;;;;;12.23;92.61;101415.78;5069338;28;20419;-77
2022/10/25 07:43:07;;;;;;;11.77;3.63;;;;;;;12.26;92.30;101415.69;5069313;28;20151;-77
2022/10/25 07:45:32;;;;;;;7.80;3.50;;;;;;;12.30;92.28;101412.09;5071314;28;20059;-77
2022/10/25 07:47:57;;;;;;;7.20;3.45;;;;;;;12.35;92.22;101414.63;5071175;28;20063;-77
2022/10/25 07:50:23;;;;;;;9.43;3.80;;;;;;;12.37;92.55;101418.06;5074273;28;20380;-77
2022/10/25 07:52:48;;;;;;;7.70;3.65;;;;;;;12.42;92.13;101418.78;5067071;28;20037;-77
2022/10/25 07:55:14;;;;;;;9.25;3.58;;;;;;;12.49;91.86;101429.09;5068018;28;20475;-77
2022/10/25 07:57:39;;;;;;;7.57;3.33;;;;;;;12.53;91.89;101422.91;5073176;28;20024;-77
2022/10/25 08:00:07;;;;;;;7.93;3.42;;;;;;;12.58;91.54;101428.84;5070841;28;20021;-78
2022/10/25 08:02:32;;;;;;;6.75;3.55;;;;;;;12.62;91.61;101424.44;5066175;28;20376;-77
2022/10/25 08:04:58;;;;;;;7.03;3.45;;;;;;;12.64;91.26;101426.09;5067427;28;20471;-77
2022/10/25 08:07:23;;;;;;;8.77;3.40;;;;;;;12.68;90.75;101432.09;5069209;28;20078;-77
2022/10/25 08:09:49;;;;;;;9.60;3.78;;;;;;;12.71;90.65;101434.63;5068043;28;20064;-77
2022/10/25 08:12:14;;;;;;;10.25;4.20;;;;;;;12.72;90.58;101438.94;5066536;28;20546;-77
2022/10/25 08:14:39;;;;;;;9.38;4.03;;;;;;;12.73;90.45;101441.50;5067912;28;20094;-77
2022/10/25 08:17:04;;;;;;;6.60;3.28;;;;;;;12.76;90.95;101443.22;5066633;28;20871;-77
2022/10/25 08:19:30;;;;;;;10.85;3.58;;;;;;;12.79;90.81;101444.88;5063154;28;20078;-78
2022/10/25 08:21:55;;;;;;;9.45;3.40;;;;;;;12.81;90.75;101446.53;5071327;28;20033;-77
2022/10/25 08:24:20;;;;;;;9.50;4.00;;;;;;;12.85;90.28;101450.78;5077724;28;20408;-77
2022/10/25 08:26:46;;;;;;;7.15;3.38;;;;;;;12.87;90.54;101448.16;5076139;28;20028;-77
2022/10/25 08:29:11;;;;;;;10.15;3.95;;;;;;;12.88;90.51;101445.50;5078657;28;20039;-77
2022/10/25 08:31:37;;;;;;;15.45;3.65;;;;;;;12.94;90.15;101451.47;5074189;28;20024;-78
2022/10/25 08:34:02;;;;;;;6.95;3.30;;;;;;;12.97;90.09;101451.41;5072099;28;20029;-78
2022/10/25 08:36:27;;;;;;;6.00;3.22;;;;;;;13.00;89.33;101443.44;5069526;28;20967;-77
2022/10/25 08:38:53;;;;;;;9.07;3.70;;;;;;;13.01;89.34;101445.16;5071042;28;20044;-77
2022/10/25 08:41:24;;;;;;;7.05;3.17;;;;;;;13.02;89.21;101452.13;5070944;28;20024;-77
2022/10/25 08:44:07;;;;;;;8.27;3.58;;;;;;;13.03;89.42;101457.31;5069610;28;20838;-77
2022/10/25 08:46:39;;;;;;;7.85;3.50;;;;;;;13.05;89.46;101446.81;5071428;28;20036;-77
2022/10/25 08:49:20;;;;;;;8.13;3.42;;;;;;;13.06;89.00;101453.75;5074023;28;20081;-77
2022/10/25 08:51:49;;;;;;;9.90;3.42;;;;;;;13.09;89.24;101458.91;5075699;28;20024;-77
2022/10/25 08:54:26;;;;;;;9.52;3.60;;;;;;;13.15;88.62;101455.25;5077120;28;20036;-78
2022/10/25 08:57:09;;;;;;;7.05;3.15;;;;;;;13.18;88.82;101468.25;5075016;28;20032;-77
2022/10/25 08:59:40;;;;;;;8.18;3.25;;;;;;;13.23;89.11;101468.13;5074066;28;20036;-78
2022/10/25 09:02:15;;;;;;;7.35;3.00;;;;;;;13.26;88.54;101470.66;5081582;28;20032;-78
2022/10/25 09:04:40;;;;;;;8.85;2.90;;;;;;;13.30;88.22;101472.28;5086394;28;20112;-78
2022/10/25 09:07:25;;;;;;;6.63;3.22;;;;;;;13.34;88.64;101473.91;5085311;28;20111;-77
2022/10/25 09:10:08;;;;;;;5.82;2.97;;;;;;;13.37;88.43;101476.44;5087780;28;20434;-77
2022/10/25 09:12:55;;;;;;;7.38;2.95;;;;;;;13.40;88.17;101478.13;5086675;28;20028;-77
2022/10/25 09:15:46;;;;;;;4.78;2.92;;;;;;;13.44;87.97;101485.00;5085017;28;20028;-77
2022/10/25 09:18:16;;;;;;;7.40;2.88;;;;;;;13.50;87.94;101487.47;5078577;28;20093;-77
2022/10/25 09:20:49;;;;;;;6.70;2.67;;;;;;;13.56;88.11;101499.50;5084478;28;20110;-77
2022/10/25 09:23:22;;;;;;;6.05;2.90;;;;;;;13.60;87.42;101493.28;5085153;28;20468;-77
2022/10/25 09:26:00;;;;;;;7.63;3.05;;;;;;;13.64;87.10;101502.78;5085840;28;20032;-77
2022/10/25 09:28:50;;;;;;;10.50;3.00;;;;;;;13.69;87.05;101495.63;5081812;28;20119;-77
2022/10/25 09:31:22;;;;;;;5.88;2.78;;;;;;;13.73;86.59;101496.41;5082960;28;20027;-78
2022/10/25 09:33:58;;;;;;;7.07;2.67;;;;;;;13.76;86.21;101502.41;5084771;28;21306;-77
2022/10/25 09:36:31;;;;;;;5.13;2.72;;;;;;;13.74;85.99;101504.22;5086451;28;20024;-78
2022/10/25 09:39:00;;;;;;;5.75;2.10;;;;;;;13.73;86.16;101505.09;5086987;28;20475;-77
2022/10/25 09:41:40;;;;;;;6.95;2.60;;;;;;;13.71;85.39;101501.69;5086105;28;20042;-77
2022/10/25 09:44:20;;;;;;;8.25;2.42;;;;;;;13.76;86.96;101505.03;5085002;28;20024;-78
2022/10/25 09:47:10;;;;;;;6.53;2.50;;;;;;;13.80;86.46;101508.41;5083273;28;20437;-77
2022/10/25 09:50:03;;;;;;;6.43;2.85;;;;;;;13.84;86.52;101503.94;5085034;28;20042;-78
2022/10/25 09:53:08;;;;;;;7.93;2.35;;;;;;;13.87;85.94;101501.22;5085364;28;20020;-77
2022/10/25 09:55:56;;;;;;;6.78;2.45;;;;;;;13.85;85.65;101505.66;5084566;28;20028;-77
2022/10/25 09:58:27;;;;;;;6.78;2.10;;;;;;;13.88;84.96;101508.19;5083934;28;20130;-77
2022/10/25 10:00:56;;;;;;;8.10;2.38;;;;;;;13.91;85.79;101508.97;5084089;28;20036;-77
2022/10/25 10:03:26;;;;;;;6.78;2.35;;;;;;;13.93;84.48;101515.00;5086738;28;20102;-77
2022/10/25 10:05:54;;;;;;;6.03;2.40;;;;;;;13.95;85.16;101520.19;5085559;28;20034;-77
2022/10/25 10:08:20;;;;;;;5.55;2.10;;;;;;;13.96;84.36;101514.06;5082875;28;20020;-77
2022/10/25 10:10:47;;;;;;;7.55;2.35;;;;;;;13.95;84.23;101520.19;5084974;28;20059;-77
2022/10/25 10:13:37;;;;;;;4.93;2.05;;;;;;;13.98;84.99;101517.50;5082482;28;20020;-78
2022/10/25 10:16:22;;;;;;;4.30;1.77;;;;;;;14.01;84.75;101530.47;5082753;28;20032;-77
2022/10/25 10:18:48;;;;;;;7.22;2.17;;;;;;;14.00;84.25;101526.16;5081580;28;20495;-77
2022/10/25 10:21:17;;;;;;;7.50;2.10;;;;;;;14.00;84.48;101525.28;5083264;28;20032;-77
2022/10/25 10:23:46;;;;;;;4.78;1.70;;;;;;;14.04;84.40;101524.31;5085478;28;20039;-78
2022/10/25 10:26:29;;;;;;;7.15;2.20;;;;;;;14.09;84.71;101527.66;5083309;28;20049;-77
2022/10/25 10:29:04;;;;;;;3.33;1.75;;;;;;;14.14;84.71;101528.34;5085234;28;20027;-78
2022/10/25 10:31:35;;;;;;;5.25;1.92;;;;;;;14.20;84.32;101527.31;5086171;28;20031;-77
2022/10/25 10:34:01;;;;;;;4.55;1.88;;;;;;;14.26;83.84;101529.75;5083409;28;20027;-77
2022/10/25 10:36:28;;;;;;;7.10;2.10;;;;;;;14.30;83.37;101535.75;5085849;28;20028;-77
2022/10/25 10:39:21;;;;;;;5.70;1.88;;;;;;;14.37;83.82;101535.50;5083692;28;20039;-77
2022/10/25 10:41:59;;;;;;;8.13;1.70;;;;;;;14.39;83.29;101533.69;5086044;28;20027;-77
2022/10/25 10:44:25;;;;;;;5.60;1.80;;;;;;;14.39;82.92;101538.94;5082565;28;20028;-77
2022/10/25 10:46:53;;;;;;;9.82;1.90;;;;;;;14.39;82.42;101541.56;5084266;28;20035;-77
2022/10/25 10:49:20;;;;;;;3.38;1.75;;;;;;;14.40;82.93;101547.66;5085752;28;20028;-77
2022/10/25 10:51:45;;;;;;;6.97;1.77;;;;;;;14.40;82.92;101545.88;5085167;28;20024;-77
2022/10/25 10:54:28;;;;;;;6.82;1.50;;;;;;;14.39;83.12;101545.94;5081572;28;20387;-78
2022/10/25 10:56:55;;;;;;;4.38;1.55;;;;;;;14.39;82.10;101559.03;5083706;28;20031;-77
2022/10/25 10:59:50;;;;;;;6.50;1.88;;;;;;;14.37;83.05;101545.97;5085085;28;20080;-77
2022/10/25 11:02:16;;;;;;;6.18;1.90;;;;;;;14.41;82.81;101552.84;5083069;28;20024;-77
2022/10/25 11:04:49;;;;;;;5.53;1.73;;;;;;;14.47;82.34;101545.72;5085829;28;20353;-77
2022/10/25 11:07:34;;;;;;;4.88;1.60;;;;;;;14.49;82.39;101543.91;5086106;28;20028;-77
2022/10/25 11:10:18;;;;;;;5.70;1.67;;;;;;;14.49;81.89;101549.13;5086369;28;20020;-77
2022/10/25 11:12:44;;;;;;;7.45;1.80;;;;;;;14.51;81.88;101547.34;5083391;28;20028;-78
2022/10/25 11:15:13;;;;;;;8.65;2.03;;;;;;;14.53;82.05;101546.38;5085575;28;20036;-78
2022/10/25 11:17:52;;;;;;;4.63;1.73;;;;;;;14.56;81.76;101550.66;5084078;28;20028;-77
2022/10/25 11:20:28;;;;;;;5.15;1.60;;;;;;;14.63;81.38;101546.94;5084715;28;20038;-78
2022/10/25 11:23:09;;;;;;;5.95;1.80;;;;;;;14.68;81.34;101545.06;5086985;28;20057;-78
2022/10/25 11:25:47;;;;;;;5.60;1.77;;;;;;;14.76;81.71;101547.44;5078883;28;20039;-77
2022/10/25 11:28:47;;;;;;;7.53;1.75;;;;;;;14.83;81.73;101548.09;5083346;28;20023;-77
2022/10/25 11:31:50;;;;;;;5.53;1.52;;;;;;;14.92;81.54;101553.03;5054238;28;20050;-77
2022/10/25 11:34:53;;;;;;;4.32;1.60;;;;;;;14.97;81.11;101547.63;5083532;28;20036;-77
2022/10/25 11:37:25;;;;;;;7.13;2.20;;;;;;;14.97;79.51;101548.50;5082376;28;20378;-76